createdAt,value
2023-05-12T00:03:21.200Z,101020.72
2023-05-12T00:10:07.218Z,101015.66
2023-05-12T00:13:42.529Z,101012.59
2023-05-12T00:16:21.920Z,101008.44
2023-05-12T00:19:23.394Z,101005.50
2023-05-12T00:22:44.371Z,101001.88
2023-05-12T00:25:22.760Z,100994.09
2023-05-12T00:27:50.760Z,100994.81
2023-05-12T00:30:19.221Z,100994.81
2023-05-12T00:32:47.305Z,100996.00
2023-05-12T00:35:16.079Z,100995.13
2023-05-12T00:37:45.462Z,100990.34
2023-05-12T00:40:13.451Z,100997.00
2023-05-12T00:42:41.504Z,100994.41
2023-05-12T00:45:10.382Z,100997.16
2023-05-12T00:47:38.546Z,100992.84
2023-05-12T00:50:08.444Z,100989.22
2023-05-12T00:52:36.549Z,100986.75
2023-05-12T00:55:07.286Z,100983.00
2023-05-12T00:57:35.130Z,100982.41
2023-05-12T01:00:03.003Z,100977.09
2023-05-12T01:02:31.637Z,100977.97
2023-05-12T01:04:59.779Z,100975.38
2023-05-12T01:07:28.657Z,100978.13
2023-05-12T01:09:57.322Z,100978.25
2023-05-12T01:12:28.505Z,100978.25
2023-05-12T01:14:58.405Z,100972.03
2023-05-12T01:17:32.767Z,100976.66
2023-05-12T01:20:02.868Z,100970.44
2023-05-12T01:22:32.198Z,100975.25
2023-05-12T01:25:02.706Z,100977.28
2023-05-12T01:27:34.219Z,100981.91
2023-05-12T01:30:05.953Z,100979.31
2023-05-12T01:32:36.055Z,100981.28
2023-05-12T01:35:05.182Z,100978.31
2023-05-12T01:37:34.288Z,100975.44
2023-05-12T01:40:05.694Z,100966.28
2023-05-12T01:42:35.238Z,100937.06
2023-05-12T01:45:03.507Z,100910.91
2023-05-12T01:47:31.970Z,100924.94
2023-05-12T01:50:11.022Z,100947.22
2023-05-12T01:52:39.750Z,100964.91
2023-05-12T01:55:13.206Z,100953.19
2023-05-12T01:57:48.167Z,100957.81
2023-05-12T02:00:17.200Z,100952.47
2023-05-12T02:02:47.729Z,100946.28
2023-05-12T02:05:15.955Z,100949.16
2023-05-12T02:07:46.488Z,100948.44
2023-05-12T02:10:14.507Z,100954.81
2023-05-12T02:12:42.489Z,100960.31
2023-05-12T02:15:12.787Z,100946.41
2023-05-12T02:17:45.074Z,100942.06
2023-05-12T02:20:14.314Z,100939.19
2023-05-12T02:22:44.019Z,100945.53
2023-05-12T02:25:11.875Z,100951.03
2023-05-12T02:27:40.045Z,100963.06
2023-05-12T02:30:09.239Z,100967.41
2023-05-12T02:32:38.739Z,100965.50
2023-05-12T02:35:09.184Z,100966.34
2023-05-12T02:37:38.342Z,100973.75
2023-05-12T02:40:08.453Z,100963.59
2023-05-12T02:42:38.471Z,100971.84
2023-05-12T02:45:07.435Z,100968.09
2023-05-12T02:47:35.261Z,100977.19
2023-05-12T02:50:05.487Z,100973.44
2023-05-12T02:52:33.339Z,100973.59
2023-05-12T02:55:01.212Z,100970.84
2023-05-12T02:57:34.289Z,100969.81
2023-05-12T03:00:04.734Z,100967.06
2023-05-12T03:02:34.080Z,100964.31
2023-05-12T03:05:02.060Z,100970.69
2023-05-12T03:07:31.633Z,100963.31
2023-05-12T03:10:00.221Z,100965.34
2023-05-12T03:12:29.328Z,100974.44
2023-05-12T03:14:57.511Z,100972.72
2023-05-12T03:17:25.370Z,100972.91
2023-05-12T03:19:53.443Z,100973.91
2023-05-12T03:22:21.267Z,100967.53
2023-05-12T03:24:50.597Z,100968.25
2023-05-12T03:27:18.506Z,100972.03
2023-05-12T03:29:46.680Z,100970.28
2023-05-12T03:32:14.580Z,100972.16
2023-05-12T03:34:42.405Z,100970.28
2023-05-12T03:37:10.555Z,100971.31
2023-05-12T03:39:38.825Z,100970.28
2023-05-12T03:42:08.695Z,100965.50
2023-05-12T03:44:36.508Z,100963.78
2023-05-12T03:47:04.457Z,100967.41
2023-05-12T03:49:32.376Z,100961.91
2023-05-12T03:52:00.457Z,100971.00
2023-05-12T03:54:28.272Z,100961.91
2023-05-12T03:56:56.101Z,100967.41
2023-05-12T03:59:25.710Z,100973.59
2023-05-12T04:01:54.269Z,100977.53
2023-05-12T04:04:22.238Z,100974.78
2023-05-12T04:06:50.170Z,100977.53
2023-05-12T04:09:18.501Z,100983.03
2023-05-12T04:11:46.314Z,100983.03
2023-05-12T04:14:14.140Z,100992.13
2023-05-12T04:16:43.425Z,100995.75
2023-05-12T04:19:11.369Z,100997.63
2023-05-12T04:21:39.161Z,100996.75
2023-05-12T04:24:07.458Z,100997.63
2023-05-12T04:26:37.578Z,100995.03
2023-05-12T04:29:05.403Z,100998.66
2023-05-12T04:31:33.515Z,101003.28
2023-05-12T04:34:04.319Z,101004.00
2023-05-12T04:36:33.881Z,101011.53
2023-05-12T04:39:02.442Z,101010.66
2023-05-12T04:41:30.567Z,101019.03
2023-05-12T04:44:00.372Z,101019.03
2023-05-12T04:46:28.703Z,101026.41
2023-05-12T04:48:56.546Z,101025.56
2023-05-12T04:51:27.076Z,101025.56
2023-05-12T04:53:55.133Z,101029.31
2023-05-12T04:56:23.553Z,101033.94
2023-05-12T04:58:51.788Z,101038.56
2023-05-12T05:01:19.694Z,101044.94
2023-05-12T05:03:48.282Z,101042.34
2023-05-12T05:06:16.406Z,101045.09
2023-05-12T05:08:46.034Z,101061.44
2023-05-12T05:11:13.815Z,101051.63
2023-05-12T05:13:47.850Z,101059.88
2023-05-12T05:16:15.871Z,101067.25
2023-05-12T05:18:46.485Z,101069.84
2023-05-12T05:21:14.974Z,101067.09
2023-05-12T05:23:47.202Z,101066.78
2023-05-12T05:26:15.444Z,101073.34
2023-05-12T05:28:44.428Z,101068.38
2023-05-12T05:31:16.528Z,101076.03
2023-05-12T05:33:44.535Z,101073.44
2023-05-12T05:36:12.510Z,101079.78
2023-05-12T05:38:40.576Z,101080.66
2023-05-12T05:41:09.785Z,101087.91
2023-05-12T05:43:37.878Z,101089.09
2023-05-12T05:46:06.610Z,101090.09
2023-05-12T05:48:36.370Z,101100.09
2023-05-12T05:51:05.092Z,101099.22
2023-05-12T05:53:33.414Z,101106.59
2023-05-12T05:56:01.402Z,101106.59
2023-05-12T06:01:26.085Z,101111.06
2023-05-12T06:03:54.284Z,101109.34
2023-05-12T06:06:23.155Z,101109.16
2023-05-12T06:08:51.220Z,101121.03
2023-05-12T06:11:19.004Z,101122.91
2023-05-12T06:13:46.860Z,101135.50
2023-05-12T06:16:14.676Z,101138.09
2023-05-12T06:18:43.967Z,101139.84
2023-05-12T06:21:11.754Z,101151.72
2023-05-12T06:23:39.595Z,101142.47
2023-05-12T06:26:07.760Z,101140.59
2023-05-12T06:28:35.526Z,101136.78
2023-05-12T06:31:03.350Z,101137.53
2023-05-12T06:33:31.229Z,101140.28
2023-05-12T06:36:00.360Z,101144.63
2023-05-12T06:38:28.200Z,101149.25
2023-05-12T06:40:55.970Z,101143.75
2023-05-12T06:43:24.402Z,101151.00
2023-05-12T06:45:56.754Z,101150.13
2023-05-12T06:48:24.980Z,101152.72
2023-05-12T06:50:56.431Z,101164.72
2023-05-12T06:53:30.742Z,101154.31
2023-05-12T06:55:58.792Z,101163.88
2023-05-12T06:58:26.608Z,101168.03
2023-05-12T07:00:54.490Z,101174.28
2023-05-12T07:03:22.401Z,101173.25
2023-05-12T07:05:50.319Z,101168.63
2023-05-12T07:08:18.182Z,101183.09
2023-05-12T07:10:47.425Z,101179.19
2023-05-12T07:13:15.216Z,101179.03
2023-05-12T07:15:43.476Z,101177.06
2023-05-12T07:18:11.366Z,101176.03
2023-05-12T07:20:39.236Z,101181.25
2023-05-12T07:23:07.081Z,101185.56
2023-05-12T07:25:34.928Z,101185.44
2023-05-12T07:28:04.222Z,101185.16
2023-05-12T07:30:32.277Z,101188.78
2023-05-12T07:33:01.266Z,101189.47
2023-05-12T07:35:29.243Z,101192.94
2023-05-12T07:37:57.074Z,101190.94
2023-05-12T07:40:25.119Z,101188.91
2023-05-12T07:42:53.080Z,101192.34
2023-05-12T07:45:24.809Z,101194.53
2023-05-12T07:47:53.219Z,101200.19
2023-05-12T07:50:21.841Z,101202.47
2023-05-12T07:52:50.358Z,101207.84
2023-05-12T07:55:19.630Z,101202.94
2023-05-12T07:57:48.141Z,101201.91
2023-05-12T08:00:17.382Z,101205.22
2023-05-12T08:02:47.239Z,101204.06
2023-05-12T08:05:15.526Z,101211.44
2023-05-12T08:07:43.984Z,101208.38
2023-05-12T08:10:12.930Z,101209.25
2023-05-12T08:12:41.495Z,101215.34
2023-05-12T08:15:10.080Z,101223.59
2023-05-12T08:17:37.888Z,101217.06
2023-05-12T08:20:09.067Z,101223.13
2023-05-12T08:22:36.998Z,101230.53
2023-05-12T08:25:05.982Z,101227.47
2023-05-12T08:27:33.926Z,101226.47
2023-05-12T08:30:01.856Z,101226.34
2023-05-12T08:32:29.901Z,101237.19
2023-05-12T08:34:57.881Z,101237.03
2023-05-12T08:37:27.454Z,101238.63
2023-05-12T08:39:55.342Z,101243.25
2023-05-12T08:42:32.540Z,101238.34
2023-05-12T08:45:01.094Z,101246.72
2023-05-12T08:47:30.096Z,101248.34
2023-05-12T08:50:01.013Z,101251.97
2023-05-12T08:52:32.782Z,101254.53
2023-05-12T08:55:01.683Z,101247.47
2023-05-12T08:57:32.096Z,101253.53
2023-05-12T09:00:00.655Z,101251.34
2023-05-12T09:02:41.013Z,101260.16
2023-05-12T09:05:16.591Z,101248.28
2023-05-12T09:07:46.779Z,101261.63
2023-05-12T09:10:29.852Z,101259.59
2023-05-12T09:13:04.841Z,101257.38
2023-05-12T09:15:36.740Z,101261.63
2023-05-12T09:18:04.670Z,101268.16
2023-05-12T09:20:32.791Z,101263.03
2023-05-12T09:23:13.994Z,101265.22
2023-05-12T09:25:41.913Z,101267.97
2023-05-12T09:28:10.152Z,101267.50
2023-05-12T09:30:38.557Z,101266.34
2023-05-12T09:33:07.937Z,101270.38
2023-05-12T09:35:42.994Z,101269.59
2023-05-12T09:38:14.122Z,101280.63
2023-05-12T09:40:43.098Z,101276.72
2023-05-12T09:43:14.399Z,101268.84
2023-05-12T09:45:46.606Z,101284.06
2023-05-12T09:48:14.951Z,101275.34
2023-05-12T09:50:48.432Z,101277.47
2023-05-12T09:53:19.253Z,101276.16
2023-05-12T09:55:48.572Z,101277.41
2023-05-12T09:58:19.099Z,101269.38
2023-05-12T10:03:21.872Z,101260.75
2023-05-12T10:05:51.785Z,101262.63
2023-05-12T10:08:26.450Z,101268.63
2023-05-12T10:10:57.320Z,101262.00
2023-05-12T10:13:26.279Z,101260.56
2023-05-12T10:15:57.056Z,101266.56
2023-05-12T10:18:25.569Z,101260.06
2023-05-12T10:20:54.772Z,101257.94
2023-05-12T10:23:24.778Z,101256.69
2023-05-12T10:25:54.701Z,101256.56
2023-05-12T10:28:22.517Z,101255.91
2023-05-12T10:30:51.904Z,101255.63
2023-05-12T10:33:20.153Z,101258.63
2023-05-12T10:35:49.494Z,101256.06
2023-05-12T10:38:17.601Z,101257.28
2023-05-12T10:40:55.218Z,101258.03
2023-05-12T10:43:24.762Z,101266.69
2023-05-12T10:46:08.725Z,101265.19
2023-05-12T10:48:38.407Z,101262.78
2023-05-12T10:51:10.079Z,101267.66
2023-05-12T10:53:49.190Z,101269.25
2023-05-12T10:56:23.952Z,101269.94
2023-05-12T10:59:14.486Z,101249.22
2023-05-12T11:01:44.569Z,101249.75
2023-05-12T11:04:15.310Z,101248.22
2023-05-12T11:06:46.787Z,101249.63
2023-05-12T11:09:17.406Z,101247.53
2023-05-12T11:11:47.963Z,101249.63
2023-05-12T11:14:16.529Z,101251.34
2023-05-12T11:16:44.467Z,101261.22
2023-05-12T11:19:12.778Z,101262.78
2023-05-12T11:21:41.115Z,101269.19
2023-05-12T11:24:13.253Z,101268.16
2023-05-12T11:26:41.642Z,101267.28
2023-05-12T11:29:11.140Z,101268.81
2023-05-12T11:31:39.764Z,101265.19
2023-05-12T11:34:13.106Z,101276.25
2023-05-12T11:36:43.405Z,101274.38
2023-05-12T11:39:14.978Z,101266.75
2023-05-12T11:41:42.895Z,101267.97
2023-05-12T11:44:16.867Z,101259.16
2023-05-12T11:46:58.124Z,101259.69
2023-05-12T11:49:26.203Z,101265.06
2023-05-12T11:51:55.146Z,101260.75
2023-05-12T11:54:23.758Z,101265.94
2023-05-12T11:56:52.648Z,101271.13
2023-05-12T11:59:32.633Z,101267.50
2023-05-12T12:02:02.790Z,101269.94
2023-05-12T12:04:38.989Z,101268.25
2023-05-12T12:07:08.055Z,101274.66
2023-05-12T12:09:37.496Z,101277.06
2023-05-12T12:12:06.969Z,101269.47
2023-05-12T12:14:38.300Z,101261.84
2023-05-12T12:17:06.400Z,101273.97
2023-05-12T12:19:34.181Z,101281.06
2023-05-12T12:22:02.035Z,101276.03
2023-05-12T12:24:30.062Z,101274.66
2023-05-12T12:26:58.102Z,101275.88
2023-05-12T12:29:28.397Z,101273.44
2023-05-12T12:31:57.687Z,101270.88
2023-05-12T12:34:25.404Z,101273.25
2023-05-12T12:36:53.305Z,101268.94
2023-05-12T12:39:21.759Z,101282.28
2023-05-12T12:41:49.672Z,101288.13
2023-05-12T12:44:17.755Z,101274.28
2023-05-12T12:46:45.738Z,101280.88
2023-05-12T12:49:15.122Z,101272.91
2023-05-12T12:51:46.830Z,101273.75
2023-05-12T12:54:15.465Z,101271.84
2023-05-12T12:56:44.350Z,101281.22
2023-05-12T12:59:12.798Z,101283.13
2023-05-12T13:01:40.620Z,101288.13
2023-05-12T13:04:08.450Z,101279.66
2023-05-12T13:06:38.691Z,101281.22
2023-05-12T13:09:06.626Z,101282.06
2023-05-12T13:11:34.420Z,101283.81
2023-05-12T13:14:04.257Z,101279.13
2023-05-12T13:16:32.216Z,101280.88
2023-05-12T13:19:00.145Z,101282.94
2023-05-12T13:21:28.464Z,101283.81
2023-05-12T13:23:57.595Z,101280.34
2023-05-12T13:26:25.436Z,101291.59
2023-05-12T13:28:53.524Z,101292.81
2023-05-12T13:31:21.476Z,101278.28
2023-05-12T13:33:49.365Z,101284.88
2023-05-12T13:36:17.326Z,101284.00
2023-05-12T13:38:47.498Z,101276.72
2023-05-12T13:41:16.692Z,101276.72
2023-05-12T13:43:44.925Z,101275.16
2023-05-12T13:46:12.703Z,101279.81
2023-05-12T13:48:40.782Z,101280.88
2023-05-12T13:51:08.685Z,101279.13
2023-05-12T13:53:38.466Z,101275.50
2023-05-12T13:56:17.206Z,101281.56
2023-05-12T13:58:45.086Z,101279.81
2023-05-12T14:01:13.133Z,101277.03
2023-05-12T14:03:42.248Z,101277.94
2023-05-12T14:06:10.944Z,101278.94
2023-05-12T14:08:40.256Z,101261.47
2023-05-12T14:11:08.635Z,101268.72
2023-05-12T14:13:37.852Z,101270.63
2023-05-12T14:16:06.404Z,101269.78
2023-05-12T14:18:34.319Z,101266.16
2023-05-12T14:21:02.588Z,101268.72
2023-05-12T14:23:30.522Z,101268.06
2023-05-12T14:25:58.630Z,101270.63
2023-05-12T14:28:26.632Z,101277.03
2023-05-12T14:30:55.803Z,101287.97
2023-05-12T14:33:26.747Z,101271.47
2023-05-12T14:36:05.932Z,101276.88
2023-05-12T14:38:35.714Z,101276.88
2023-05-12T14:41:03.975Z,101278.47
2023-05-12T14:43:32.393Z,101282.97
2023-05-12T14:46:02.285Z,101279.81
2023-05-12T14:48:30.384Z,101277.91
2023-05-12T14:50:58.830Z,101273.94
2023-05-12T14:53:27.086Z,101273.75
2023-05-12T14:55:54.948Z,101279.13
2023-05-12T14:58:24.088Z,101279.78
2023-05-12T15:00:52.756Z,101291.59
2023-05-12T15:03:22.388Z,101294.00
2023-05-12T15:06:04.674Z,101285.00
2023-05-12T15:08:34.558Z,101275.47
2023-05-12T15:11:02.325Z,101284.66
2023-05-12T15:13:30.262Z,101287.25
2023-05-12T15:15:58.102Z,101286.19
2023-05-12T15:18:27.288Z,101291.72
2023-05-12T15:20:55.103Z,101290.03
2023-05-12T15:23:23.156Z,101293.63
2023-05-12T15:25:51.273Z,101296.41
2023-05-12T15:28:19.327Z,101293.84
2023-05-12T15:30:55.426Z,101286.91
2023-05-12T15:33:23.341Z,101295.78
2023-05-12T15:35:52.671Z,101292.13
2023-05-12T15:38:20.541Z,101298.34
2023-05-12T15:40:48.394Z,101302.69
2023-05-12T15:43:16.224Z,101308.06
2023-05-12T15:45:44.039Z,101310.84
2023-05-12T15:48:11.864Z,101316.03
2023-05-12T15:50:39.690Z,101314.81
2023-05-12T15:53:08.918Z,101320.03
2023-05-12T15:55:36.837Z,101314.47
2023-05-12T15:58:05.425Z,101314.31
2023-05-12T16:00:33.497Z,101313.06
2023-05-12T16:03:01.872Z,101304.44
2023-05-12T16:05:29.885Z,101304.09
2023-05-12T16:07:57.746Z,101306.50
2023-05-12T16:10:27.048Z,101312.38
2023-05-12T16:12:55.081Z,101320.31
2023-05-12T16:15:22.962Z,101329.97
2023-05-12T16:17:50.976Z,101331.19
2023-05-12T16:20:19.134Z,101322.16
2023-05-12T16:22:47.605Z,101325.09
2023-05-12T16:25:15.625Z,101319.75
2023-05-12T16:27:44.979Z,101309.53
2023-05-12T16:30:13.597Z,101304.34
2023-05-12T16:32:41.778Z,101307.97
2023-05-12T16:35:10.180Z,101311.63
2023-05-12T16:37:38.076Z,101307.13
2023-05-12T16:40:07.164Z,101319.94
2023-05-12T16:42:35.040Z,101308.84
2023-05-12T16:45:04.348Z,101317.84
2023-05-12T16:47:32.202Z,101312.50
2023-05-12T16:50:00.301Z,101312.50
2023-05-12T16:52:28.385Z,101316.13
2023-05-12T16:54:57.142Z,101313.34
2023-05-12T16:57:25.213Z,101315.44
2023-05-12T16:59:53.182Z,101315.44
2023-05-12T17:02:22.542Z,101319.94
2023-05-12T17:04:50.391Z,101322.00
2023-05-12T17:07:18.593Z,101324.75
2023-05-12T17:09:46.414Z,101335.81
2023-05-12T17:12:14.323Z,101334.97
2023-05-12T17:14:44.339Z,101341.38
2023-05-12T17:17:13.752Z,101337.88
2023-05-12T17:19:43.285Z,101345.72
2023-05-12T17:22:11.287Z,101352.28
2023-05-12T17:24:39.115Z,101355.03
2023-05-12T17:27:07.010Z,101358.69
2023-05-12T17:29:34.831Z,101355.03
2023-05-12T17:32:03.034Z,101356.78
2023-05-12T17:34:30.852Z,101363.34
2023-05-12T17:37:00.222Z,101363.19
2023-05-12T17:39:27.996Z,101366.13
2023-05-12T17:41:56.002Z,101371.66
2023-05-12T17:44:23.920Z,101378.22
2023-05-12T17:46:51.779Z,101383.75
2023-05-12T17:49:19.628Z,101388.56
2023-05-12T17:51:49.362Z,101385.81
2023-05-12T17:54:18.596Z,101392.22
2023-05-12T17:56:47.196Z,101381.66
2023-05-12T17:59:15.196Z,101388.22
2023-05-12T18:01:43.005Z,101386.50
2023-05-12T18:04:10.825Z,101393.06
2023-05-12T18:06:38.639Z,101396.84
2023-05-12T18:09:06.785Z,101399.63
2023-05-12T18:11:36.149Z,101396.84
2023-05-12T18:14:05.765Z,101390.59
2023-05-12T18:16:33.718Z,101386.13
2023-05-12T18:19:01.820Z,101388.03
2023-05-12T18:21:29.694Z,101381.78
2023-05-12T18:23:57.515Z,101397.53
2023-05-12T18:26:26.423Z,101390.25
2023-05-12T18:28:55.688Z,101399.44
2023-05-12T18:31:23.560Z,101393.19
2023-05-12T18:33:51.404Z,101388.88
2023-05-12T18:36:19.711Z,101394.41
2023-05-12T18:38:48.034Z,101394.72
2023-05-12T18:41:15.840Z,101395.75
2023-05-12T18:43:44.785Z,101395.03
2023-05-12T18:46:14.048Z,101397.81
2023-05-12T18:48:41.945Z,101394.53
2023-05-12T18:51:09.823Z,101396.59
2023-05-12T18:53:37.686Z,101392.06
2023-05-12T18:56:05.670Z,101396.91
2023-05-12T18:58:33.628Z,101392.41
2023-05-12T19:01:01.974Z,101397.25
2023-05-12T19:03:32.297Z,101395.50
2023-05-12T19:06:00.115Z,101403.25
2023-05-12T19:08:27.984Z,101407.25
2023-05-12T19:10:55.832Z,101412.06
2023-05-12T19:13:23.702Z,101405.81
2023-05-12T19:15:51.566Z,101413.41
2023-05-12T19:18:19.467Z,101415.50
2023-05-12T19:20:48.931Z,101415.66
2023-05-12T19:23:17.166Z,101419.75
2023-05-12T19:25:45.167Z,101423.69
2023-05-12T19:28:13.065Z,101423.03
2023-05-12T19:30:40.942Z,101424.00
2023-05-12T19:33:08.930Z,101425.19
2023-05-12T19:35:36.810Z,101428.13
2023-05-12T19:38:06.145Z,101434.53
2023-05-12T19:40:34.107Z,101435.03
2023-05-12T19:43:02.116Z,101442.59
2023-05-12T19:45:30.081Z,101444.66
2023-05-12T19:47:58.257Z,101450.38
2023-05-12T19:50:26.369Z,101454.31
2023-05-12T19:52:54.226Z,101454.47
2023-05-12T19:55:23.577Z,101461.88
2023-05-12T19:57:51.775Z,101462.38
2023-05-12T20:00:22.074Z,101468.06
2023-05-12T20:02:50.453Z,101468.38
2023-05-12T20:05:18.798Z,101467.66
2023-05-12T20:07:48.398Z,101464.34
2023-05-12T20:10:16.382Z,101481.97
2023-05-12T20:12:45.775Z,101483.84
2023-05-12T20:15:13.570Z,101481.59
2023-05-12T20:17:41.542Z,101480.00
2023-05-12T20:20:11.466Z,101482.03
2023-05-12T20:22:39.486Z,101486.84
2023-05-12T20:25:07.892Z,101488.06
2023-05-12T20:27:35.916Z,101488.34
2023-05-12T20:30:05.898Z,101491.13
2023-05-12T20:32:33.889Z,101500.91
2023-05-12T20:35:01.809Z,101496.41
2023-05-12T20:37:29.745Z,101510.53
2023-05-12T20:39:57.602Z,101503.59
2023-05-12T20:42:25.690Z,101500.13
2023-05-12T20:44:53.680Z,101501.28
2023-05-12T20:47:23.167Z,101503.19
2023-05-12T20:49:56.049Z,101497.84
2023-05-12T20:52:24.697Z,101492.91
2023-05-12T20:54:57.081Z,101493.78
2023-05-12T20:57:24.961Z,101499.03
2023-05-12T20:59:54.476Z,101497.13
2023-05-12T21:02:24.116Z,101501.78
2023-05-12T21:04:52.216Z,101499.50
2023-05-12T21:07:20.854Z,101501.41
2023-05-12T21:09:48.824Z,101502.56
2023-05-12T21:12:17.031Z,101505.47
2023-05-12T21:14:46.267Z,101497.34
2023-05-12T21:17:14.136Z,101493.03
2023-05-12T21:19:44.197Z,101492.16
2023-05-12T21:22:13.016Z,101496.22
2023-05-12T21:24:42.084Z,101489.09
2023-05-12T21:27:10.347Z,101496.69
2023-05-12T21:29:38.462Z,101484.94
2023-05-12T21:32:07.154Z,101494.25
2023-05-12T21:34:36.098Z,101498.16
2023-05-12T21:37:05.724Z,101500.06
2023-05-12T21:39:33.771Z,101496.75
2023-05-12T21:42:02.000Z,101497.75
2023-05-12T21:44:29.973Z,101491.66
2023-05-12T21:46:58.663Z,101494.59
2023-05-12T21:49:26.876Z,101496.78
2023-05-12T21:51:55.919Z,101498.69
2023-05-12T21:54:25.258Z,101502.59
2023-05-12T21:56:53.154Z,101500.47
2023-05-12T21:59:21.066Z,101498.03
2023-05-12T22:01:48.929Z,101504.69
2023-05-12T22:04:16.771Z,101498.59
2023-05-12T22:06:44.618Z,101499.81
2023-05-12T22:09:12.827Z,101496.31
2023-05-12T22:11:42.045Z,101503.72
2023-05-12T22:14:09.872Z,101502.25
2023-05-12T22:16:41.790Z,101505.19
2023-05-12T22:19:10.877Z,101501.72
2023-05-12T22:21:38.828Z,101504.63
2023-05-12T22:24:07.386Z,101503.75
2023-05-12T22:26:35.323Z,101501.28
2023-05-12T22:29:04.550Z,101494.75
2023-05-12T22:31:32.393Z,101499.69
2023-05-12T22:34:00.380Z,101499.81
2023-05-12T22:36:28.437Z,101504.47
2023-05-12T22:38:56.269Z,101496.47
2023-05-12T22:41:24.082Z,101502.88
2023-05-12T22:43:51.990Z,101493.91
2023-05-12T22:46:21.176Z,101503.00
2023-05-12T22:48:50.832Z,101501.44
2023-05-12T22:51:18.633Z,101496.22
2023-05-12T22:53:46.572Z,101504.47
2023-05-12T22:56:14.583Z,101504.63
2023-05-12T22:58:42.655Z,101504.81
2023-05-12T23:01:10.801Z,101503.19
2023-05-12T23:03:40.251Z,101503.19
2023-05-12T23:06:08.471Z,101511.75
2023-05-12T23:08:36.380Z,101505.50
2023-05-12T23:11:04.320Z,101515.66
2023-05-12T23:13:32.182Z,101516.88
2023-05-12T23:16:00.076Z,101505.09
2023-05-12T23:18:28.142Z,101513.50
2023-05-12T23:20:57.448Z,101514.53
2023-05-12T23:23:25.521Z,101510.47
2023-05-12T23:25:53.440Z,101510.75
2023-05-12T23:28:21.549Z,101513.69
2023-05-12T23:30:49.390Z,101510.34
2023-05-12T23:33:17.718Z,101502.22
2023-05-12T23:35:45.657Z,101503.41
2023-05-12T23:38:14.976Z,101499.78
2023-05-12T23:40:42.922Z,101492.66
2023-05-12T23:43:10.927Z,101492.06
2023-05-12T23:45:38.758Z,101486.72
2023-05-12T23:48:07.508Z,101491.38
2023-05-12T23:50:36.078Z,101491.53
2023-05-12T23:53:04.022Z,101492.53
2023-05-12T23:55:33.366Z,101488.03
2023-05-12T23:58:01.326Z,101474.53
